sensor_id;sensor_type;location;lat;lon;timestamp;temperature;humidity
10192;DHT22;17580;50.850;4.504;2023-05-07T00:00:49;15.60;54.50
10192;DHT22;17580;50.850;4.504;2023-05-07T00:03:16;15.60;54.70
10192;DHT22;17580;50.850;4.504;2023-05-07T00:05:44;15.50;54.50
10192;DHT22;17580;50.850;4.504;2023-05-07T00:08:12;15.50;55.50
10192;DHT22;17580;50.850;4.504;2023-05-07T00:10:41;15.50;55.80
10192;DHT22;17580;50.850;4.504;2023-05-07T00:13:08;15.60;55.20
10192;DHT22;17580;50.850;4.504;2023-05-07T00:15:35;15.60;54.80
10192;DHT22;17580;50.850;4.504;2023-05-07T00:18:02;15.60;54.60
10192;DHT22;17580;50.850;4.504;2023-05-07T00:20:29;15.60;55.60
10192;DHT22;17580;50.850;4.504;2023-05-07T00:22:56;15.50;55.60
10192;DHT22;17580;50.850;4.504;2023-05-07T00:25:23;15.60;54.90
10192;DHT22;17580;50.850;4.504;2023-05-07T00:27:51;15.50;54.70
10192;DHT22;17580;50.850;4.504;2023-05-07T00:30:18;15.60;54.50
10192;DHT22;17580;50.850;4.504;2023-05-07T00:32:45;15.60;55.00
10192;DHT22;17580;50.850;4.504;2023-05-07T00:35:14;15.50;55.50
10192;DHT22;17580;50.850;4.504;2023-05-07T00:37:41;15.50;55.70
10192;DHT22;17580;50.850;4.504;2023-05-07T00:40:08;15.50;55.90
10192;DHT22;17580;50.850;4.504;2023-05-07T00:42:36;15.40;56.40
10192;DHT22;17580;50.850;4.504;2023-05-07T00:45:05;15.40;56.70
10192;DHT22;17580;50.850;4.504;2023-05-07T00:47:33;15.40;56.20
10192;DHT22;17580;50.850;4.504;2023-05-07T00:50:00;15.40;57.40
10192;DHT22;17580;50.850;4.504;2023-05-07T00:52:28;15.40;56.90
10192;DHT22;17580;50.850;4.504;2023-05-07T00:54:55;15.40;57.50
10192;DHT22;17580;50.850;4.504;2023-05-07T00:57:23;15.40;57.60
10192;DHT22;17580;50.850;4.504;2023-05-07T00:59:51;15.40;57.20
10192;DHT22;17580;50.850;4.504;2023-05-07T01:02:20;15.40;57.30
10192;DHT22;17580;50.850;4.504;2023-05-07T01:04:47;15.40;57.20
10192;DHT22;17580;50.850;4.504;2023-05-07T01:07:14;15.40;57.80
10192;DHT22;17580;50.850;4.504;2023-05-07T01:09:41;15.40;58.00
10192;DHT22;17580;50.850;4.504;2023-05-07T01:12:08;15.40;57.90
10192;DHT22;17580;50.850;4.504;2023-05-07T01:14:36;15.40;57.90
10192;DHT22;17580;50.850;4.504;2023-05-07T01:17:03;15.40;58.20
10192;DHT22;17580;50.850;4.504;2023-05-07T01:19:31;15.40;58.60
10192;DHT22;17580;50.850;4.504;2023-05-07T01:22:02;15.40;58.30
10192;DHT22;17580;50.850;4.504;2023-05-07T01:24:32;15.40;58.30
10192;DHT22;17580;50.850;4.504;2023-05-07T01:26:59;15.40;58.30
10192;DHT22;17580;50.850;4.504;2023-05-07T01:29:27;15.30;58.20
10192;DHT22;17580;50.850;4.504;2023-05-07T01:31:55;15.40;58.70
10192;DHT22;17580;50.850;4.504;2023-05-07T01:34:24;15.40;57.90
10192;DHT22;17580;50.850;4.504;2023-05-07T01:36:53;15.30;58.10
10192;DHT22;17580;50.850;4.504;2023-05-07T01:39:21;15.30;58.80
10192;DHT22;17580;50.850;4.504;2023-05-07T01:41:50;15.30;58.40
10192;DHT22;17580;50.850;4.504;2023-05-07T01:44:18;15.30;57.70
10192;DHT22;17580;50.850;4.504;2023-05-07T01:46:46;15.30;57.90
10192;DHT22;17580;50.850;4.504;2023-05-07T01:49:15;15.40;57.70
10192;DHT22;17580;50.850;4.504;2023-05-07T01:51:43;15.30;57.50
10192;DHT22;17580;50.850;4.504;2023-05-07T01:54:10;15.30;57.50
10192;DHT22;17580;50.850;4.504;2023-05-07T01:56:37;15.30;58.40
10192;DHT22;17580;50.850;4.504;2023-05-07T01:59:05;15.30;57.90
10192;DHT22;17580;50.850;4.504;2023-05-07T02:01:32;15.30;57.50
10192;DHT22;17580;50.850;4.504;2023-05-07T02:03:59;15.30;58.20
10192;DHT22;17580;50.850;4.504;2023-05-07T02:06:26;15.20;58.30
10192;DHT22;17580;50.850;4.504;2023-05-07T02:08:53;15.30;58.50
10192;DHT22;17580;50.850;4.504;2023-05-07T02:11:19;15.30;58.50
10192;DHT22;17580;50.850;4.504;2023-05-07T02:13:46;15.30;58.70
10192;DHT22;17580;50.850;4.504;2023-05-07T02:16:15;15.30;58.90
10192;DHT22;17580;50.850;4.504;2023-05-07T02:18:42;15.30;58.20
10192;DHT22;17580;50.850;4.504;2023-05-07T02:21:09;15.30;58.40
10192;DHT22;17580;50.850;4.504;2023-05-07T02:23:36;15.30;58.60
10192;DHT22;17580;50.850;4.504;2023-05-07T02:26:03;15.20;58.80
10192;DHT22;17580;50.850;4.504;2023-05-07T02:28:30;15.20;59.30
10192;DHT22;17580;50.850;4.504;2023-05-07T02:30:57;15.20;59.80
10192;DHT22;17580;50.850;4.504;2023-05-07T02:33:27;15.20;59.30
10192;DHT22;17580;50.850;4.504;2023-05-07T02:35:54;15.10;59.40
10192;DHT22;17580;50.850;4.504;2023-05-07T02:38:21;15.10;60.30
10192;DHT22;17580;50.850;4.504;2023-05-07T02:40:48;15.10;59.80
10192;DHT22;17580;50.850;4.504;2023-05-07T02:43:15;15.10;59.90
10192;DHT22;17580;50.850;4.504;2023-05-07T02:45:42;15.10;59.40
10192;DHT22;17580;50.850;4.504;2023-05-07T02:48:09;15.00;59.60
10192;DHT22;17580;50.850;4.504;2023-05-07T02:50:38;14.90;59.80
10192;DHT22;17580;50.850;4.504;2023-05-07T02:53:05;14.90;59.80
10192;DHT22;17580;50.850;4.504;2023-05-07T02:55:32;14.80;60.00
10192;DHT22;17580;50.850;4.504;2023-05-07T02:57:59;14.80;60.30
10192;DHT22;17580;50.850;4.504;2023-05-07T03:00:26;14.70;59.80
10192;DHT22;17580;50.850;4.504;2023-05-07T03:02:53;14.70;59.70
10192;DHT22;17580;50.850;4.504;2023-05-07T03:05:20;14.70;59.80
10192;DHT22;17580;50.850;4.504;2023-05-07T03:07:48;14.70;59.70
10192;DHT22;17580;50.850;4.504;2023-05-07T03:10:15;14.70;60.00
10192;DHT22;17580;50.850;4.504;2023-05-07T03:12:42;14.70;60.70
10192;DHT22;17580;50.850;4.504;2023-05-07T03:15:10;14.70;61.20
10192;DHT22;17580;50.850;4.504;2023-05-07T03:17:38;14.80;61.00
10192;DHT22;17580;50.850;4.504;2023-05-07T03:20:06;14.70;61.60
10192;DHT22;17580;50.850;4.504;2023-05-07T03:22:33;14.80;61.60
10192;DHT22;17580;50.850;4.504;2023-05-07T03:25:02;14.70;61.30
10192;DHT22;17580;50.850;4.504;2023-05-07T03:27:30;14.70;61.30
10192;DHT22;17580;50.850;4.504;2023-05-07T03:29:56;14.80;61.20
10192;DHT22;17580;50.850;4.504;2023-05-07T03:32:23;14.80;61.60
10192;DHT22;17580;50.850;4.504;2023-05-07T03:34:51;14.80;62.30
10192;DHT22;17580;50.850;4.504;2023-05-07T03:37:18;14.90;61.80
10192;DHT22;17580;50.850;4.504;2023-05-07T03:39:45;15.00;60.70
10192;DHT22;17580;50.850;4.504;2023-05-07T03:42:14;15.00;60.30
10192;DHT22;17580;50.850;4.504;2023-05-07T03:44:41;15.00;60.20
10192;DHT22;17580;50.850;4.504;2023-05-07T03:47:08;15.10;60.20
10192;DHT22;17580;50.850;4.504;2023-05-07T03:49:36;15.00;59.60
10192;DHT22;17580;50.850;4.504;2023-05-07T03:52:04;15.10;59.40
10192;DHT22;17580;50.850;4.504;2023-05-07T03:54:31;15.10;59.40
10192;DHT22;17580;50.850;4.504;2023-05-07T03:56:58;15.00;59.40
10192;DHT22;17580;50.850;4.504;2023-05-07T03:59:26;15.00;59.40
10192;DHT22;17580;50.850;4.504;2023-05-07T04:01:53;15.00;59.80
10192;DHT22;17580;50.850;4.504;2023-05-07T04:04:20;15.00;60.30
10192;DHT22;17580;50.850;4.504;2023-05-07T04:06:47;15.00;60.70
10192;DHT22;17580;50.850;4.504;2023-05-07T04:09:14;14.90;61.80
10192;DHT22;17580;50.850;4.504;2023-05-07T04:11:41;14.90;61.80
10192;DHT22;17580;50.850;4.504;2023-05-07T04:14:08;14.80;61.70
10192;DHT22;17580;50.850;4.504;2023-05-07T04:16:36;14.80;61.70
10192;DHT22;17580;50.850;4.504;2023-05-07T04:19:03;14.80;62.70
10192;DHT22;17580;50.850;4.504;2023-05-07T04:21:31;14.90;61.50
10192;DHT22;17580;50.850;4.504;2023-05-07T04:23:58;15.00;60.70
10192;DHT22;17580;50.850;4.504;2023-05-07T04:26:25;15.00;60.30
10192;DHT22;17580;50.850;4.504;2023-05-07T04:28:52;15.00;60.00
10192;DHT22;17580;50.850;4.504;2023-05-07T04:31:19;15.00;60.50
10192;DHT22;17580;50.850;4.504;2023-05-07T04:33:47;15.00;60.50
10192;DHT22;17580;50.850;4.504;2023-05-07T04:36:14;15.00;60.30
10192;DHT22;17580;50.850;4.504;2023-05-07T04:38:41;15.00;60.60
10192;DHT22;17580;50.850;4.504;2023-05-07T04:41:09;15.00;61.00
10192;DHT22;17580;50.850;4.504;2023-05-07T04:43:36;15.00;62.00
10192;DHT22;17580;50.850;4.504;2023-05-07T04:46:03;14.90;62.40
10192;DHT22;17580;50.850;4.504;2023-05-07T04:48:30;15.00;60.70
10192;DHT22;17580;50.850;4.504;2023-05-07T04:50:58;15.00;60.10
10192;DHT22;17580;50.850;4.504;2023-05-07T04:53:26;15.10;60.20
10192;DHT22;17580;50.850;4.504;2023-05-07T04:55:55;15.10;60.00
10192;DHT22;17580;50.850;4.504;2023-05-07T04:58:22;15.10;60.60
10192;DHT22;17580;50.850;4.504;2023-05-07T05:00:49;15.10;61.70
10192;DHT22;17580;50.850;4.504;2023-05-07T05:03:16;15.10;61.30
10192;DHT22;17580;50.850;4.504;2023-05-07T05:05:43;15.00;61.20
10192;DHT22;17580;50.850;4.504;2023-05-07T05:08:11;15.00;62.20
10192;DHT22;17580;50.850;4.504;2023-05-07T05:10:38;15.00;63.20
10192;DHT22;17580;50.850;4.504;2023-05-07T05:13:06;14.90;62.50
10192;DHT22;17580;50.850;4.504;2023-05-07T05:15:33;15.00;61.80
10192;DHT22;17580;50.850;4.504;2023-05-07T05:18:00;15.10;61.20
10192;DHT22;17580;50.850;4.504;2023-05-07T05:20:27;15.10;61.70
10192;DHT22;17580;50.850;4.504;2023-05-07T05:22:54;15.20;62.00
10192;DHT22;17580;50.850;4.504;2023-05-07T05:25:23;15.20;62.20
10192;DHT22;17580;50.850;4.504;2023-05-07T05:27:49;15.30;61.30
10192;DHT22;17580;50.850;4.504;2023-05-07T05:30:16;15.30;60.90
10192;DHT22;17580;50.850;4.504;2023-05-07T05:32:43;15.40;59.70
10192;DHT22;17580;50.850;4.504;2023-05-07T05:35:10;15.40;59.70
10192;DHT22;17580;50.850;4.504;2023-05-07T05:37:37;15.40;59.70
10192;DHT22;17580;50.850;4.504;2023-05-07T05:40:05;15.40;59.40
10192;DHT22;17580;50.850;4.504;2023-05-07T05:42:34;15.50;59.40
10192;DHT22;17580;50.850;4.504;2023-05-07T05:45:01;15.40;59.40
10192;DHT22;17580;50.850;4.504;2023-05-07T05:47:28;15.50;59.70
10192;DHT22;17580;50.850;4.504;2023-05-07T05:49:56;15.50;59.30
10192;DHT22;17580;50.850;4.504;2023-05-07T05:52:22;15.50;59.60
10192;DHT22;17580;50.850;4.504;2023-05-07T05:54:50;15.50;59.60
10192;DHT22;17580;50.850;4.504;2023-05-07T05:57:17;15.50;59.70
10192;DHT22;17580;50.850;4.504;2023-05-07T05:59:46;15.60;59.80
10192;DHT22;17580;50.850;4.504;2023-05-07T06:02:13;15.60;59.10
10192;DHT22;17580;50.850;4.504;2023-05-07T06:04:40;15.50;59.20
10192;DHT22;17580;50.850;4.504;2023-05-07T06:07:08;15.50;60.90
10192;DHT22;17580;50.850;4.504;2023-05-07T06:09:35;15.60;59.80
10192;DHT22;17580;50.850;4.504;2023-05-07T06:12:02;15.50;60.90
10192;DHT22;17580;50.850;4.504;2023-05-07T06:14:29;15.50;62.20
10192;DHT22;17580;50.850;4.504;2023-05-07T06:16:57;15.50;61.20
10192;DHT22;17580;50.850;4.504;2023-05-07T06:19:24;15.50;61.60
10192;DHT22;17580;50.850;4.504;2023-05-07T06:21:52;15.50;60.90
10192;DHT22;17580;50.850;4.504;2023-05-07T06:24:19;15.60;60.60
10192;DHT22;17580;50.850;4.504;2023-05-07T06:26:46;15.60;59.80
10192;DHT22;17580;50.850;4.504;2023-05-07T06:29:13;15.60;59.20
10192;DHT22;17580;50.850;4.504;2023-05-07T06:31:40;15.60;59.40
10192;DHT22;17580;50.850;4.504;2023-05-07T06:34:08;15.70;59.90
10192;DHT22;17580;50.850;4.504;2023-05-07T06:36:36;15.70;59.10
10192;DHT22;17580;50.850;4.504;2023-05-07T06:39:03;15.80;59.30
10192;DHT22;17580;50.850;4.504;2023-05-07T06:41:30;15.90;59.40
10192;DHT22;17580;50.850;4.504;2023-05-07T06:43:57;15.90;58.70
10192;DHT22;17580;50.850;4.504;2023-05-07T06:46:24;16.00;58.20
10192;DHT22;17580;50.850;4.504;2023-05-07T06:48:51;16.00;58.20
10192;DHT22;17580;50.850;4.504;2023-05-07T06:51:19;16.00;57.70
10192;DHT22;17580;50.850;4.504;2023-05-07T06:53:46;16.00;59.10
10192;DHT22;17580;50.850;4.504;2023-05-07T06:56:13;15.90;59.70
10192;DHT22;17580;50.850;4.504;2023-05-07T06:58:40;15.80;59.20
10192;DHT22;17580;50.850;4.504;2023-05-07T07:01:07;15.90;60.60
10192;DHT22;17580;50.850;4.504;2023-05-07T07:03:34;15.90;61.40
10192;DHT22;17580;50.850;4.504;2023-05-07T07:06:01;15.90;61.00
10192;DHT22;17580;50.850;4.504;2023-05-07T07:08:30;15.90;60.10
10192;DHT22;17580;50.850;4.504;2023-05-07T07:10:57;16.00;61.30
10192;DHT22;17580;50.850;4.504;2023-05-07T07:13:24;16.00;61.50
10192;DHT22;17580;50.850;4.504;2023-05-07T07:15:52;16.00;61.90
10192;DHT22;17580;50.850;4.504;2023-05-07T07:18:19;16.00;62.00
10192;DHT22;17580;50.850;4.504;2023-05-07T07:20:46;16.10;63.80
10192;DHT22;17580;50.850;4.504;2023-05-07T07:23:13;16.00;63.00
10192;DHT22;17580;50.850;4.504;2023-05-07T07:25:42;16.10;63.70
10192;DHT22;17580;50.850;4.504;2023-05-07T07:28:09;16.10;64.10
10192;DHT22;17580;50.850;4.504;2023-05-07T07:30:36;16.10;64.20
10192;DHT22;17580;50.850;4.504;2023-05-07T07:33:03;16.10;64.80
10192;DHT22;17580;50.850;4.504;2023-05-07T07:35:31;16.20;64.90
10192;DHT22;17580;50.850;4.504;2023-05-07T07:37:58;16.20;65.40
10192;DHT22;17580;50.850;4.504;2023-05-07T07:40:25;16.20;66.80
10192;DHT22;17580;50.850;4.504;2023-05-07T07:42:54;16.30;65.90
10192;DHT22;17580;50.850;4.504;2023-05-07T07:45:21;16.40;66.30
10192;DHT22;17580;50.850;4.504;2023-05-07T07:47:48;16.40;66.20
10192;DHT22;17580;50.850;4.504;2023-05-07T07:50:15;16.40;66.20
10192;DHT22;17580;50.850;4.504;2023-05-07T07:52:42;16.50;66.60
10192;DHT22;17580;50.850;4.504;2023-05-07T07:55:09;16.40;66.70
10192;DHT22;17580;50.850;4.504;2023-05-07T07:57:36;16.40;67.00
10192;DHT22;17580;50.850;4.504;2023-05-07T08:00:05;16.40;66.20
10192;DHT22;17580;50.850;4.504;2023-05-07T08:02:32;16.40;66.90
10192;DHT22;17580;50.850;4.504;2023-05-07T08:04:59;16.40;68.10
10192;DHT22;17580;50.850;4.504;2023-05-07T08:07:26;16.40;68.30
10192;DHT22;17580;50.850;4.504;2023-05-07T08:09:53;16.30;67.60
10192;DHT22;17580;50.850;4.504;2023-05-07T08:12:20;16.40;68.40
10192;DHT22;17580;50.850;4.504;2023-05-07T08:14:47;16.40;68.00
10192;DHT22;17580;50.850;4.504;2023-05-07T08:17:15;16.50;67.80
10192;DHT22;17580;50.850;4.504;2023-05-07T08:19:42;16.50;68.50
10192;DHT22;17580;50.850;4.504;2023-05-07T08:22:09;16.50;68.50
10192;DHT22;17580;50.850;4.504;2023-05-07T08:24:37;16.50;68.90
10192;DHT22;17580;50.850;4.504;2023-05-07T08:27:04;16.60;69.80
10192;DHT22;17580;50.850;4.504;2023-05-07T08:29:31;16.60;70.10
10192;DHT22;17580;50.850;4.504;2023-05-07T08:31:58;16.60;70.90
10192;DHT22;17580;50.850;4.504;2023-05-07T08:34:26;16.60;70.10
10192;DHT22;17580;50.850;4.504;2023-05-07T08:36:53;16.50;70.30
10192;DHT22;17580;50.850;4.504;2023-05-07T08:39:20;16.40;70.10
10192;DHT22;17580;50.850;4.504;2023-05-07T08:41:48;16.50;70.00
10192;DHT22;17580;50.850;4.504;2023-05-07T08:44:21;16.40;70.50
10192;DHT22;17580;50.850;4.504;2023-05-07T08:46:51;16.50;70.90
10192;DHT22;17580;50.850;4.504;2023-05-07T08:49:20;16.40;70.40
10192;DHT22;17580;50.850;4.504;2023-05-07T08:51:48;16.40;72.20
10192;DHT22;17580;50.850;4.504;2023-05-07T08:54:16;16.40;70.70
10192;DHT22;17580;50.850;4.504;2023-05-07T08:56:43;16.50;71.80
10192;DHT22;17580;50.850;4.504;2023-05-07T08:59:10;16.60;71.80
10192;DHT22;17580;50.850;4.504;2023-05-07T09:01:37;16.70;71.20
10192;DHT22;17580;50.850;4.504;2023-05-07T09:04:05;16.80;71.60
10192;DHT22;17580;50.850;4.504;2023-05-07T09:06:32;17.00;71.50
10192;DHT22;17580;50.850;4.504;2023-05-07T09:09:01;17.00;71.10
10192;DHT22;17580;50.850;4.504;2023-05-07T09:11:30;16.90;71.10
10192;DHT22;17580;50.850;4.504;2023-05-07T09:13:58;17.10;71.00
10192;DHT22;17580;50.850;4.504;2023-05-07T09:16:28;17.00;69.40
10192;DHT22;17580;50.850;4.504;2023-05-07T09:18:57;17.10;71.10
10192;DHT22;17580;50.850;4.504;2023-05-07T09:21:25;17.00;70.70
10192;DHT22;17580;50.850;4.504;2023-05-07T09:23:53;17.10;70.60
10192;DHT22;17580;50.850;4.504;2023-05-07T09:26:22;17.00;70.80
10192;DHT22;17580;50.850;4.504;2023-05-07T09:28:50;17.00;70.60
10192;DHT22;17580;50.850;4.504;2023-05-07T09:31:17;17.00;70.70
10192;DHT22;17580;50.850;4.504;2023-05-07T09:33:44;16.90;71.10
10192;DHT22;17580;50.850;4.504;2023-05-07T09:36:11;16.90;70.70
10192;DHT22;17580;50.850;4.504;2023-05-07T09:38:38;17.00;70.10
10192;DHT22;17580;50.850;4.504;2023-05-07T09:41:07;17.00;70.60
10192;DHT22;17580;50.850;4.504;2023-05-07T09:43:37;17.00;71.20
10192;DHT22;17580;50.850;4.504;2023-05-07T09:46:07;17.10;70.40
10192;DHT22;17580;50.850;4.504;2023-05-07T09:48:37;17.10;69.80
10192;DHT22;17580;50.850;4.504;2023-05-07T09:51:15;17.10;70.60
10192;DHT22;17580;50.850;4.504;2023-05-07T09:53:45;17.10;70.30
10192;DHT22;17580;50.850;4.504;2023-05-07T09:56:13;17.00;69.60
10192;DHT22;17580;50.850;4.504;2023-05-07T09:58:43;17.10;70.40
10192;DHT22;17580;50.850;4.504;2023-05-07T10:01:12;17.10;70.20
10192;DHT22;17580;50.850;4.504;2023-05-07T10:03:40;17.10;70.90
10192;DHT22;17580;50.850;4.504;2023-05-07T10:06:09;17.10;70.70
10192;DHT22;17580;50.850;4.504;2023-05-07T10:08:36;17.10;72.50
10192;DHT22;17580;50.850;4.504;2023-05-07T10:11:04;17.10;72.50
10192;DHT22;17580;50.850;4.504;2023-05-07T10:13:32;17.10;72.90
10192;DHT22;17580;50.850;4.504;2023-05-07T10:16:02;17.10;71.70
10192;DHT22;17580;50.850;4.504;2023-05-07T10:18:30;17.20;71.50
10192;DHT22;17580;50.850;4.504;2023-05-07T10:21:02;17.10;72.70
10192;DHT22;17580;50.850;4.504;2023-05-07T10:23:31;17.10;73.20
10192;DHT22;17580;50.850;4.504;2023-05-07T10:26:00;17.20;74.00
10192;DHT22;17580;50.850;4.504;2023-05-07T10:28:29;17.20;73.20
10192;DHT22;17580;50.850;4.504;2023-05-07T10:31:07;17.30;73.20
10192;DHT22;17580;50.850;4.504;2023-05-07T10:33:34;17.30;72.70
10192;DHT22;17580;50.850;4.504;2023-05-07T10:36:03;17.30;70.00
10192;DHT22;17580;50.850;4.504;2023-05-07T10:38:33;17.30;68.40
10192;DHT22;17580;50.850;4.504;2023-05-07T10:41:01;17.30;69.90
10192;DHT22;17580;50.850;4.504;2023-05-07T10:43:40;17.30;71.30
10192;DHT22;17580;50.850;4.504;2023-05-07T10:46:15;17.30;71.50
10192;DHT22;17580;50.850;4.504;2023-05-07T10:49:10;17.30;70.80
10192;DHT22;17580;50.850;4.504;2023-05-07T10:51:41;17.30;71.50
10192;DHT22;17580;50.850;4.504;2023-05-07T10:54:32;17.40;70.80
10192;DHT22;17580;50.850;4.504;2023-05-07T10:57:34;17.40;70.00
10192;DHT22;17580;50.850;4.504;2023-05-07T11:00:41;17.40;71.00
10192;DHT22;17580;50.850;4.504;2023-05-07T11:03:08;17.40;68.90
10192;DHT22;17580;50.850;4.504;2023-05-07T11:05:35;17.40;67.60
10192;DHT22;17580;50.850;4.504;2023-05-07T11:08:03;17.40;67.30
10192;DHT22;17580;50.850;4.504;2023-05-07T11:10:51;17.50;69.30
10192;DHT22;17580;50.850;4.504;2023-05-07T11:13:42;17.50;67.90
10192;DHT22;17580;50.850;4.504;2023-05-07T11:16:20;17.60;70.00
10192;DHT22;17580;50.850;4.504;2023-05-07T11:18:49;17.70;70.70
10192;DHT22;17580;50.850;4.504;2023-05-07T11:21:32;17.70;69.70
10192;DHT22;17580;50.850;4.504;2023-05-07T11:24:00;17.80;68.00
10192;DHT22;17580;50.850;4.504;2023-05-07T11:26:30;17.80;67.70
10192;DHT22;17580;50.850;4.504;2023-05-07T11:28:57;17.70;67.70
10192;DHT22;17580;50.850;4.504;2023-05-07T11:31:27;17.80;68.80
10192;DHT22;17580;50.850;4.504;2023-05-07T11:33:55;17.80;70.50
10192;DHT22;17580;50.850;4.504;2023-05-07T11:36:23;17.90;72.20
10192;DHT22;17580;50.850;4.504;2023-05-07T11:38:51;18.00;71.60
10192;DHT22;17580;50.850;4.504;2023-05-07T11:41:18;18.10;67.50
10192;DHT22;17580;50.850;4.504;2023-05-07T11:44:00;18.10;69.50
10192;DHT22;17580;50.850;4.504;2023-05-07T11:46:28;18.20;69.50
10192;DHT22;17580;50.850;4.504;2023-05-07T11:48:56;18.30;70.50
10192;DHT22;17580;50.850;4.504;2023-05-07T11:51:24;18.20;66.30
10192;DHT22;17580;50.850;4.504;2023-05-07T11:53:52;18.20;67.50
10192;DHT22;17580;50.850;4.504;2023-05-07T11:56:19;18.20;64.30
10192;DHT22;17580;50.850;4.504;2023-05-07T11:58:47;18.20;63.80
10192;DHT22;17580;50.850;4.504;2023-05-07T12:01:16;18.30;68.00
10192;DHT22;17580;50.850;4.504;2023-05-07T12:03:45;18.30;66.00
10192;DHT22;17580;50.850;4.504;2023-05-07T12:06:13;18.20;64.70
10192;DHT22;17580;50.850;4.504;2023-05-07T12:08:41;18.40;65.30
10192;DHT22;17580;50.850;4.504;2023-05-07T12:11:10;18.50;62.20
10192;DHT22;17580;50.850;4.504;2023-05-07T12:13:39;18.50;64.00
10192;DHT22;17580;50.850;4.504;2023-05-07T12:16:06;18.50;67.90
10192;DHT22;17580;50.850;4.504;2023-05-07T12:18:36;18.60;67.50
10192;DHT22;17580;50.850;4.504;2023-05-07T12:21:05;18.60;67.70
10192;DHT22;17580;50.850;4.504;2023-05-07T12:23:34;18.60;60.20
10192;DHT22;17580;50.850;4.504;2023-05-07T12:26:01;18.70;61.50
10192;DHT22;17580;50.850;4.504;2023-05-07T12:28:28;18.60;63.20
10192;DHT22;17580;50.850;4.504;2023-05-07T12:30:56;18.60;61.30
10192;DHT22;17580;50.850;4.504;2023-05-07T12:33:24;18.60;63.10
10192;DHT22;17580;50.850;4.504;2023-05-07T12:35:54;18.70;64.20
10192;DHT22;17580;50.850;4.504;2023-05-07T12:38:22;18.50;62.50
10192;DHT22;17580;50.850;4.504;2023-05-07T12:40:50;18.60;65.30
10192;DHT22;17580;50.850;4.504;2023-05-07T12:43:21;18.60;61.50
10192;DHT22;17580;50.850;4.504;2023-05-07T12:45:49;18.50;61.30
10192;DHT22;17580;50.850;4.504;2023-05-07T12:48:17;18.50;64.70
10192;DHT22;17580;50.850;4.504;2023-05-07T12:50:48;18.50;67.70
10192;DHT22;17580;50.850;4.504;2023-05-07T12:53:19;18.50;66.50
10192;DHT22;17580;50.850;4.504;2023-05-07T12:55:48;18.60;64.60
10192;DHT22;17580;50.850;4.504;2023-05-07T12:58:16;18.70;65.30
10192;DHT22;17580;50.850;4.504;2023-05-07T13:00:44;18.60;67.50
10192;DHT22;17580;50.850;4.504;2023-05-07T13:03:11;18.60;66.40
10192;DHT22;17580;50.850;4.504;2023-05-07T13:05:39;18.60;65.40
10192;DHT22;17580;50.850;4.504;2023-05-07T13:08:06;18.50;62.90
10192;DHT22;17580;50.850;4.504;2023-05-07T13:10:36;18.50;65.20
10192;DHT22;17580;50.850;4.504;2023-05-07T13:13:03;18.50;65.60
10192;DHT22;17580;50.850;4.504;2023-05-07T13:15:30;18.50;66.70
10192;DHT22;17580;50.850;4.504;2023-05-07T13:17:57;18.50;64.40
10192;DHT22;17580;50.850;4.504;2023-05-07T13:20:24;18.40;62.50
10192;DHT22;17580;50.850;4.504;2023-05-07T13:22:51;18.50;64.00
10192;DHT22;17580;50.850;4.504;2023-05-07T13:25:18;18.60;66.40
10192;DHT22;17580;50.850;4.504;2023-05-07T13:27:47;18.60;67.40
10192;DHT22;17580;50.850;4.504;2023-05-07T13:30:14;18.50;65.40
10192;DHT22;17580;50.850;4.504;2023-05-07T13:32:41;18.50;65.60
10192;DHT22;17580;50.850;4.504;2023-05-07T13:35:08;18.50;66.30
10192;DHT22;17580;50.850;4.504;2023-05-07T13:37:35;18.50;63.50
10192;DHT22;17580;50.850;4.504;2023-05-07T13:40:02;18.60;67.30
10192;DHT22;17580;50.850;4.504;2023-05-07T13:42:30;18.60;65.70
10192;DHT22;17580;50.850;4.504;2023-05-07T13:44:58;18.60;60.50
10192;DHT22;17580;50.850;4.504;2023-05-07T13:47:26;18.60;64.50
10192;DHT22;17580;50.850;4.504;2023-05-07T13:49:53;18.70;66.90
10192;DHT22;17580;50.850;4.504;2023-05-07T13:52:20;18.70;66.80
10192;DHT22;17580;50.850;4.504;2023-05-07T13:54:47;18.80;66.00
10192;DHT22;17580;50.850;4.504;2023-05-07T13:57:14;18.80;67.10
10192;DHT22;17580;50.850;4.504;2023-05-07T13:59:41;18.90;66.10
10192;DHT22;17580;50.850;4.504;2023-05-07T14:02:09;18.80;66.00
10192;DHT22;17580;50.850;4.504;2023-05-07T14:04:37;18.70;64.30
10192;DHT22;17580;50.850;4.504;2023-05-07T14:07:04;18.60;63.50
10192;DHT22;17580;50.850;4.504;2023-05-07T14:09:31;18.60;63.00
10192;DHT22;17580;50.850;4.504;2023-05-07T14:11:58;18.60;64.90
10192;DHT22;17580;50.850;4.504;2023-05-07T14:14:27;18.50;65.70
10192;DHT22;17580;50.850;4.504;2023-05-07T14:16:54;18.60;64.50
10192;DHT22;17580;50.850;4.504;2023-05-07T14:19:22;18.60;66.20
10192;DHT22;17580;50.850;4.504;2023-05-07T14:21:49;18.80;66.60
10192;DHT22;17580;50.850;4.504;2023-05-07T14:24:16;18.80;64.30
10192;DHT22;17580;50.850;4.504;2023-05-07T14:26:43;18.60;63.50
10192;DHT22;17580;50.850;4.504;2023-05-07T14:29:10;18.60;64.90
10192;DHT22;17580;50.850;4.504;2023-05-07T14:31:37;18.60;64.00
10192;DHT22;17580;50.850;4.504;2023-05-07T14:34:05;18.60;63.90
10192;DHT22;17580;50.850;4.504;2023-05-07T14:36:33;18.70;64.70
10192;DHT22;17580;50.850;4.504;2023-05-07T14:39:00;18.70;64.20
10192;DHT22;17580;50.850;4.504;2023-05-07T14:41:28;18.70;63.80
10192;DHT22;17580;50.850;4.504;2023-05-07T14:43:54;18.70;63.80
10192;DHT22;17580;50.850;4.504;2023-05-07T14:46:21;18.60;66.10
10192;DHT22;17580;50.850;4.504;2023-05-07T14:48:49;18.50;63.80
10192;DHT22;17580;50.850;4.504;2023-05-07T14:51:16;18.40;62.50
10192;DHT22;17580;50.850;4.504;2023-05-07T14:53:44;18.40;65.20
10192;DHT22;17580;50.850;4.504;2023-05-07T14:56:11;18.40;64.70
10192;DHT22;17580;50.850;4.504;2023-05-07T14:58:38;18.50;63.20
10192;DHT22;17580;50.850;4.504;2023-05-07T15:01:05;18.50;62.30
10192;DHT22;17580;50.850;4.504;2023-05-07T15:03:32;18.50;65.70
10192;DHT22;17580;50.850;4.504;2023-05-07T15:06:00;18.50;65.60
10192;DHT22;17580;50.850;4.504;2023-05-07T15:08:27;18.40;62.80
10192;DHT22;17580;50.850;4.504;2023-05-07T15:10:55;18.50;64.80
10192;DHT22;17580;50.850;4.504;2023-05-07T15:13:22;18.40;66.80
10192;DHT22;17580;50.850;4.504;2023-05-07T15:15:49;18.40;63.70
10192;DHT22;17580;50.850;4.504;2023-05-07T15:18:16;18.50;66.90
10192;DHT22;17580;50.850;4.504;2023-05-07T15:20:43;18.50;63.70
10192;DHT22;17580;50.850;4.504;2023-05-07T15:23:10;18.50;63.40
10192;DHT22;17580;50.850;4.504;2023-05-07T15:25:39;18.40;63.40
10192;DHT22;17580;50.850;4.504;2023-05-07T15:28:08;18.40;65.30
10192;DHT22;17580;50.850;4.504;2023-05-07T15:30:35;18.40;67.90
10192;DHT22;17580;50.850;4.504;2023-05-07T15:33:02;18.30;65.50
10192;DHT22;17580;50.850;4.504;2023-05-07T15:35:29;18.30;65.50